Trefriw, United Kingdom
Current Conditions -  °F | °C
As of 4:50 PM on Thursday 18 Dec 2014 (Local Time) from EGOV Reporting Station
Overcast Overcast  
Wind Chill: 54°   Ceiling: 9000
Heat Index: 54°   Visibility: 6mi
Dew Point: 52°   Wind: 26mph
Humidity: 94%   Direction: 220°SW
Pressure: 29.62"   Gusts: NA
Location:  53.13°N, 3.81°W
Report Text: EGOV 181650Z 22023KT 9999 FEW007 SCT030 OVC090 12/11 Q1003 BLU TEMPO 7000 -RA SCT007 GRN
Loading
Personal Weather Stations






























Interactive Weather Map New forecast layout! Learn more

10-Day Weather Forecast

Advertisements
Track Severe Weather on mobile